Snedekerville, Pennsylvania
Current Conditions -  °F | °C
As of 5:53 PM on Thursday 20 Nov 2014 (Local Time) from KELM Reporting Station
Few Clouds Few Clouds  
Wind Chill: 16°   Ceiling: Unl
Heat Index: 28°   Visibility: 10mi
Dew Point:   Wind: 17mph
Humidity: 43%   Direction: 250°WSW
Pressure: 29.9"   Gusts: 23mph
Location:  41.8495°N, 76.7925°W
Report Text: KELM 202253Z 25015G20KT 10SM FEW055 M02/M13 A2990 RMK AO2 SLP136 T10221133
Loading
Personal Weather Stations






























Interactive Weather Map New forecast layout! Learn more

10-Day Weather Forecast

Advertisements
Track Severe Weather on mobile